Terminal Aerodrome Forecast
Issued by NWS

Home | Current Version | Previous Version | Text Only | Print | Product List | Glossary On
Versions: 1 2 3 4 5 6 7 8 9 10 11 12 13 14 15 16 17 18 19 20
193
FTUS43 KGRR 232340
TAFMKG
TAF
KMKG 232340Z 2400/2424 VRB05KT P6SM FEW030 BKN150
     FM241000 18009KT P6SM VCTS BKN060CB
     FM241500 18012G22KT P6SM -RA OVC040
     FM241800 21014G21KT P6SM VCSH BKN050=

USA.gov is the U.S. government's official web portal to all federal, state and local government web resources and services.